sensor_id;sensor_type;location;lat;lon;timestamp;temperature;humidity
52481;DHT22;38393;52.404;13.532;2023-07-31T00:02:22;15.70;99.90
52481;DHT22;38393;52.404;13.532;2023-07-31T00:04:47;15.60;99.90
52481;DHT22;38393;52.404;13.532;2023-07-31T00:07:14;15.50;99.90
52481;DHT22;38393;52.404;13.532;2023-07-31T00:09:39;15.40;99.90
52481;DHT22;38393;52.404;13.532;2023-07-31T00:12:05;15.40;99.90
52481;DHT22;38393;52.404;13.532;2023-07-31T00:14:31;15.30;99.90
52481;DHT22;38393;52.404;13.532;2023-07-31T00:16:56;15.20;99.90
52481;DHT22;38393;52.404;13.532;2023-07-31T00:19:22;15.20;99.90
52481;DHT22;38393;52.404;13.532;2023-07-31T00:21:47;15.20;99.90
52481;DHT22;38393;52.404;13.532;2023-07-31T00:24:13;15.10;99.90
52481;DHT22;38393;52.404;13.532;2023-07-31T00:26:38;15.10;99.90
52481;DHT22;38393;52.404;13.532;2023-07-31T00:29:04;15.20;99.90
52481;DHT22;38393;52.404;13.532;2023-07-31T00:31:30;15.10;99.90
52481;DHT22;38393;52.404;13.532;2023-07-31T00:33:56;15.10;99.90
52481;DHT22;38393;52.404;13.532;2023-07-31T00:36:22;15.10;99.90
52481;DHT22;38393;52.404;13.532;2023-07-31T00:38:47;15.00;99.90
52481;DHT22;38393;52.404;13.532;2023-07-31T00:41:13;15.10;99.90
52481;DHT22;38393;52.404;13.532;2023-07-31T00:43:38;15.10;99.90
52481;DHT22;38393;52.404;13.532;2023-07-31T00:46:04;15.10;99.90
52481;DHT22;38393;52.404;13.532;2023-07-31T00:48:30;15.10;99.90
52481;DHT22;38393;52.404;13.532;2023-07-31T00:50:55;15.20;99.90
52481;DHT22;38393;52.404;13.532;2023-07-31T00:53:21;15.20;99.90
52481;DHT22;38393;52.404;13.532;2023-07-31T00:55:46;15.20;99.90
52481;DHT22;38393;52.404;13.532;2023-07-31T00:58:12;15.20;99.90
52481;DHT22;38393;52.404;13.532;2023-07-31T01:00:37;15.20;99.90
52481;DHT22;38393;52.404;13.532;2023-07-31T01:03:03;15.30;99.90
52481;DHT22;38393;52.404;13.532;2023-07-31T01:05:43;15.30;99.90
52481;DHT22;38393;52.404;13.532;2023-07-31T01:08:31;15.30;99.90
52481;DHT22;38393;52.404;13.532;2023-07-31T01:11:07;15.30;99.90
52481;DHT22;38393;52.404;13.532;2023-07-31T01:13:35;15.40;99.90
52481;DHT22;38393;52.404;13.532;2023-07-31T01:16:01;15.10;99.90
52481;DHT22;38393;52.404;13.532;2023-07-31T01:18:26;15.20;99.90
52481;DHT22;38393;52.404;13.532;2023-07-31T01:21:01;15.20;99.90
52481;DHT22;38393;52.404;13.532;2023-07-31T01:26:31;15.10;99.90
52481;DHT22;38393;52.404;13.532;2023-07-31T01:29:03;15.10;99.90
52481;DHT22;38393;52.404;13.532;2023-07-31T01:31:30;15.10;99.90
52481;DHT22;38393;52.404;13.532;2023-07-31T01:34:00;15.10;99.90
52481;DHT22;38393;52.404;13.532;2023-07-31T01:36:26;15.20;99.90
52481;DHT22;38393;52.404;13.532;2023-07-31T01:38:51;15.10;99.90
52481;DHT22;38393;52.404;13.532;2023-07-31T01:41:18;15.10;99.90
52481;DHT22;38393;52.404;13.532;2023-07-31T01:43:44;15.10;99.90
52481;DHT22;38393;52.404;13.532;2023-07-31T01:46:09;15.10;99.90
52481;DHT22;38393;52.404;13.532;2023-07-31T01:48:35;15.10;99.90
52481;DHT22;38393;52.404;13.532;2023-07-31T01:51:02;15.10;99.90
52481;DHT22;38393;52.404;13.532;2023-07-31T01:53:28;15.10;99.90
52481;DHT22;38393;52.404;13.532;2023-07-31T01:55:54;15.10;99.90
52481;DHT22;38393;52.404;13.532;2023-07-31T01:58:20;15.10;99.90
52481;DHT22;38393;52.404;13.532;2023-07-31T02:00:45;15.10;99.90
52481;DHT22;38393;52.404;13.532;2023-07-31T02:03:11;15.10;99.90
52481;DHT22;38393;52.404;13.532;2023-07-31T02:05:47;15.00;99.90
52481;DHT22;38393;52.404;13.532;2023-07-31T02:08:13;15.10;99.90
52481;DHT22;38393;52.404;13.532;2023-07-31T02:10:38;15.00;99.90
52481;DHT22;38393;52.404;13.532;2023-07-31T02:13:04;15.10;99.90
52481;DHT22;38393;52.404;13.532;2023-07-31T02:15:30;15.00;99.90
52481;DHT22;38393;52.404;13.532;2023-07-31T02:17:56;15.10;99.90
52481;DHT22;38393;52.404;13.532;2023-07-31T02:20:21;15.10;99.90
52481;DHT22;38393;52.404;13.532;2023-07-31T02:22:47;15.10;99.90
52481;DHT22;38393;52.404;13.532;2023-07-31T02:25:12;15.10;99.90
52481;DHT22;38393;52.404;13.532;2023-07-31T02:27:38;15.10;99.90
52481;DHT22;38393;52.404;13.532;2023-07-31T02:30:04;15.20;99.90
52481;DHT22;38393;52.404;13.532;2023-07-31T02:32:29;15.10;99.90
52481;DHT22;38393;52.404;13.532;2023-07-31T02:34:55;15.10;99.90
52481;DHT22;38393;52.404;13.532;2023-07-31T02:37:20;15.20;99.90
52481;DHT22;38393;52.404;13.532;2023-07-31T02:39:45;15.10;99.90
52481;DHT22;38393;52.404;13.532;2023-07-31T02:42:12;15.10;99.90
52481;DHT22;38393;52.404;13.532;2023-07-31T02:44:38;15.10;99.90
52481;DHT22;38393;52.404;13.532;2023-07-31T02:47:03;15.10;99.90
52481;DHT22;38393;52.404;13.532;2023-07-31T02:49:29;15.30;99.90
52481;DHT22;38393;52.404;13.532;2023-07-31T02:51:54;15.10;99.90
52481;DHT22;38393;52.404;13.532;2023-07-31T02:54:20;15.10;99.90
52481;DHT22;38393;52.404;13.532;2023-07-31T02:56:47;15.20;99.90
52481;DHT22;38393;52.404;13.532;2023-07-31T02:59:12;15.20;99.90
52481;DHT22;38393;52.404;13.532;2023-07-31T03:01:38;15.10;99.90
52481;DHT22;38393;52.404;13.532;2023-07-31T03:04:03;15.10;99.90
52481;DHT22;38393;52.404;13.532;2023-07-31T03:06:29;15.20;99.90
52481;DHT22;38393;52.404;13.532;2023-07-31T03:08:55;15.30;99.90
52481;DHT22;38393;52.404;13.532;2023-07-31T03:11:20;15.10;99.90
52481;DHT22;38393;52.404;13.532;2023-07-31T03:13:46;15.10;99.90
52481;DHT22;38393;52.404;13.532;2023-07-31T03:16:11;15.00;99.90
52481;DHT22;38393;52.404;13.532;2023-07-31T03:18:36;15.10;99.90
52481;DHT22;38393;52.404;13.532;2023-07-31T03:21:02;15.10;99.90
52481;DHT22;38393;52.404;13.532;2023-07-31T03:23:27;15.00;99.90
52481;DHT22;38393;52.404;13.532;2023-07-31T03:25:58;15.10;99.90
52481;DHT22;38393;52.404;13.532;2023-07-31T03:28:23;15.30;99.90
52481;DHT22;38393;52.404;13.532;2023-07-31T03:30:49;15.20;99.90
52481;DHT22;38393;52.404;13.532;2023-07-31T03:33:14;15.20;99.90
52481;DHT22;38393;52.404;13.532;2023-07-31T03:35:40;15.10;99.90
52481;DHT22;38393;52.404;13.532;2023-07-31T03:38:05;15.10;99.90
52481;DHT22;38393;52.404;13.532;2023-07-31T03:40:31;15.20;99.90
52481;DHT22;38393;52.404;13.532;2023-07-31T03:42:56;15.30;99.90
52481;DHT22;38393;52.404;13.532;2023-07-31T03:45:22;15.20;99.90
52481;DHT22;38393;52.404;13.532;2023-07-31T03:47:47;15.20;99.90
52481;DHT22;38393;52.404;13.532;2023-07-31T03:50:13;15.30;99.90
52481;DHT22;38393;52.404;13.532;2023-07-31T03:52:38;15.20;99.90
52481;DHT22;38393;52.404;13.532;2023-07-31T03:55:04;15.30;99.90
52481;DHT22;38393;52.404;13.532;2023-07-31T03:57:29;15.20;99.90
52481;DHT22;38393;52.404;13.532;2023-07-31T03:59:57;15.30;99.90
52481;DHT22;38393;52.404;13.532;2023-07-31T04:02:23;15.30;99.90
52481;DHT22;38393;52.404;13.532;2023-07-31T04:04:49;15.30;99.90
52481;DHT22;38393;52.404;13.532;2023-07-31T04:07:14;15.30;99.90
52481;DHT22;38393;52.404;13.532;2023-07-31T04:09:39;15.40;99.90
52481;DHT22;38393;52.404;13.532;2023-07-31T04:12:05;15.40;99.90
52481;DHT22;38393;52.404;13.532;2023-07-31T04:14:31;15.40;99.90
52481;DHT22;38393;52.404;13.532;2023-07-31T04:16:56;15.40;99.90
52481;DHT22;38393;52.404;13.532;2023-07-31T04:19:21;15.40;99.90
52481;DHT22;38393;52.404;13.532;2023-07-31T04:21:47;15.40;99.90
52481;DHT22;38393;52.404;13.532;2023-07-31T04:24:12;15.50;99.90
52481;DHT22;38393;52.404;13.532;2023-07-31T04:26:38;15.50;99.90
52481;DHT22;38393;52.404;13.532;2023-07-31T04:29:03;15.50;99.90
52481;DHT22;38393;52.404;13.532;2023-07-31T04:31:29;15.40;99.90
52481;DHT22;38393;52.404;13.532;2023-07-31T04:33:54;15.40;99.90
52481;DHT22;38393;52.404;13.532;2023-07-31T04:36:20;15.50;99.90
52481;DHT22;38393;52.404;13.532;2023-07-31T04:38:45;15.40;99.90
52481;DHT22;38393;52.404;13.532;2023-07-31T04:41:11;15.50;99.90
52481;DHT22;38393;52.404;13.532;2023-07-31T04:43:36;15.50;99.90
52481;DHT22;38393;52.404;13.532;2023-07-31T04:46:04;15.40;99.90
52481;DHT22;38393;52.404;13.532;2023-07-31T04:48:30;15.60;99.90
52481;DHT22;38393;52.404;13.532;2023-07-31T04:50:55;15.60;99.90
52481;DHT22;38393;52.404;13.532;2023-07-31T04:53:21;15.60;99.90
52481;DHT22;38393;52.404;13.532;2023-07-31T04:55:46;15.60;99.90
52481;DHT22;38393;52.404;13.532;2023-07-31T04:58:12;15.60;99.90
52481;DHT22;38393;52.404;13.532;2023-07-31T05:00:37;15.60;99.90
52481;DHT22;38393;52.404;13.532;2023-07-31T05:03:03;15.50;99.90
52481;DHT22;38393;52.404;13.532;2023-07-31T05:05:28;15.50;99.90
52481;DHT22;38393;52.404;13.532;2023-07-31T05:07:54;15.70;99.90
52481;DHT22;38393;52.404;13.532;2023-07-31T05:10:19;15.70;99.90
52481;DHT22;38393;52.404;13.532;2023-07-31T05:12:45;15.70;99.90
52481;DHT22;38393;52.404;13.532;2023-07-31T05:15:10;15.80;99.90
52481;DHT22;38393;52.404;13.532;2023-07-31T05:17:36;15.90;99.90
52481;DHT22;38393;52.404;13.532;2023-07-31T05:20:01;16.00;99.90
52481;DHT22;38393;52.404;13.532;2023-07-31T05:22:27;16.10;99.90
52481;DHT22;38393;52.404;13.532;2023-07-31T05:24:52;16.00;99.90
52481;DHT22;38393;52.404;13.532;2023-07-31T05:27:19;16.10;99.90
52481;DHT22;38393;52.404;13.532;2023-07-31T05:29:44;16.00;99.90
52481;DHT22;38393;52.404;13.532;2023-07-31T05:32:10;16.00;99.90
52481;DHT22;38393;52.404;13.532;2023-07-31T05:34:36;16.00;99.90
52481;DHT22;38393;52.404;13.532;2023-07-31T05:37:01;16.00;99.90
52481;DHT22;38393;52.404;13.532;2023-07-31T05:39:27;15.90;99.90
52481;DHT22;38393;52.404;13.532;2023-07-31T05:41:52;16.00;99.90
52481;DHT22;38393;52.404;13.532;2023-07-31T05:44:17;15.90;99.90
52481;DHT22;38393;52.404;13.532;2023-07-31T05:46:43;16.00;99.90
52481;DHT22;38393;52.404;13.532;2023-07-31T05:49:08;16.00;99.90
52481;DHT22;38393;52.404;13.532;2023-07-31T05:51:34;16.10;99.90
52481;DHT22;38393;52.404;13.532;2023-07-31T05:53:59;16.10;99.90
52481;DHT22;38393;52.404;13.532;2023-07-31T05:56:25;16.10;99.90
52481;DHT22;38393;52.404;13.532;2023-07-31T05:58:52;16.20;99.90
52481;DHT22;38393;52.404;13.532;2023-07-31T06:01:18;16.30;99.90
52481;DHT22;38393;52.404;13.532;2023-07-31T06:03:43;16.20;99.90
52481;DHT22;38393;52.404;13.532;2023-07-31T06:06:09;16.20;99.90
52481;DHT22;38393;52.404;13.532;2023-07-31T06:08:35;16.20;99.90
52481;DHT22;38393;52.404;13.532;2023-07-31T06:11:00;16.20;99.90
52481;DHT22;38393;52.404;13.532;2023-07-31T06:13:26;16.20;99.90
52481;DHT22;38393;52.404;13.532;2023-07-31T06:15:51;16.30;99.90
52481;DHT22;38393;52.404;13.532;2023-07-31T06:18:17;16.20;99.90
52481;DHT22;38393;52.404;13.532;2023-07-31T06:20:42;16.20;99.90
52481;DHT22;38393;52.404;13.532;2023-07-31T06:23:08;16.10;99.90
52481;DHT22;38393;52.404;13.532;2023-07-31T06:25:33;16.20;99.90
52481;DHT22;38393;52.404;13.532;2023-07-31T06:27:59;16.20;99.90
52481;DHT22;38393;52.404;13.532;2023-07-31T06:30:24;16.20;99.90
52481;DHT22;38393;52.404;13.532;2023-07-31T06:32:50;16.20;99.90
52481;DHT22;38393;52.404;13.532;2023-07-31T06:35:15;16.30;99.90
52481;DHT22;38393;52.404;13.532;2023-07-31T06:37:40;16.20;99.90
52481;DHT22;38393;52.404;13.532;2023-07-31T06:40:09;16.20;99.90
52481;DHT22;38393;52.404;13.532;2023-07-31T06:42:35;16.20;99.90
52481;DHT22;38393;52.404;13.532;2023-07-31T06:45:01;16.20;99.90
52481;DHT22;38393;52.404;13.532;2023-07-31T06:47:27;16.20;99.90
52481;DHT22;38393;52.404;13.532;2023-07-31T06:49:52;16.20;99.90
52481;DHT22;38393;52.404;13.532;2023-07-31T06:52:18;16.30;99.90
52481;DHT22;38393;52.404;13.532;2023-07-31T06:54:44;16.20;99.90
52481;DHT22;38393;52.404;13.532;2023-07-31T06:57:09;16.20;99.90
52481;DHT22;38393;52.404;13.532;2023-07-31T06:59:35;16.10;99.90
52481;DHT22;38393;52.404;13.532;2023-07-31T07:02:00;16.10;99.90
52481;DHT22;38393;52.404;13.532;2023-07-31T07:04:26;16.30;99.90
52481;DHT22;38393;52.404;13.532;2023-07-31T07:06:52;16.30;99.90
52481;DHT22;38393;52.404;13.532;2023-07-31T07:09:17;16.30;99.90
52481;DHT22;38393;52.404;13.532;2023-07-31T07:11:43;16.30;99.90
52481;DHT22;38393;52.404;13.532;2023-07-31T07:14:08;16.20;99.90
52481;DHT22;38393;52.404;13.532;2023-07-31T07:16:34;16.10;99.90
52481;DHT22;38393;52.404;13.532;2023-07-31T07:18:59;16.10;99.90
52481;DHT22;38393;52.404;13.532;2023-07-31T07:21:25;16.30;99.90
52481;DHT22;38393;52.404;13.532;2023-07-31T07:23:50;16.10;99.90
52481;DHT22;38393;52.404;13.532;2023-07-31T07:26:16;16.10;99.90
52481;DHT22;38393;52.404;13.532;2023-07-31T07:28:41;16.20;99.90
52481;DHT22;38393;52.404;13.532;2023-07-31T07:31:07;16.20;99.90
52481;DHT22;38393;52.404;13.532;2023-07-31T07:33:32;16.30;99.90
52481;DHT22;38393;52.404;13.532;2023-07-31T07:36:01;16.30;99.90
52481;DHT22;38393;52.404;13.532;2023-07-31T07:38:27;16.40;99.90
52481;DHT22;38393;52.404;13.532;2023-07-31T07:40:52;16.60;99.90
52481;DHT22;38393;52.404;13.532;2023-07-31T07:43:18;16.90;99.90
52481;DHT22;38393;52.404;13.532;2023-07-31T07:45:44;16.90;99.90
52481;DHT22;38393;52.404;13.532;2023-07-31T07:48:09;17.00;99.90
52481;DHT22;38393;52.404;13.532;2023-07-31T07:50:35;17.00;99.90
52481;DHT22;38393;52.404;13.532;2023-07-31T07:53:00;17.00;99.90
52481;DHT22;38393;52.404;13.532;2023-07-31T07:55:26;17.00;99.90
52481;DHT22;38393;52.404;13.532;2023-07-31T07:57:51;17.20;99.90
52481;DHT22;38393;52.404;13.532;2023-07-31T08:00:17;17.20;99.90
52481;DHT22;38393;52.404;13.532;2023-07-31T08:02:43;17.40;99.90
52481;DHT22;38393;52.404;13.532;2023-07-31T08:05:09;17.20;99.90
52481;DHT22;38393;52.404;13.532;2023-07-31T08:07:34;17.10;99.90
52481;DHT22;38393;52.404;13.532;2023-07-31T08:10:00;17.20;99.90
52481;DHT22;38393;52.404;13.532;2023-07-31T08:12:25;17.20;99.90
52481;DHT22;38393;52.404;13.532;2023-07-31T08:14:51;17.00;99.90
52481;DHT22;38393;52.404;13.532;2023-07-31T08:17:17;17.00;99.90
52481;DHT22;38393;52.404;13.532;2023-07-31T08:19:42;16.80;99.90
52481;DHT22;38393;52.404;13.532;2023-07-31T08:22:09;16.90;99.90
52481;DHT22;38393;52.404;13.532;2023-07-31T08:24:34;16.90;99.90
52481;DHT22;38393;52.404;13.532;2023-07-31T08:27:00;16.80;99.90
52481;DHT22;38393;52.404;13.532;2023-07-31T08:29:25;16.90;99.90
52481;DHT22;38393;52.404;13.532;2023-07-31T08:31:51;16.80;99.90
52481;DHT22;38393;52.404;13.532;2023-07-31T08:34:16;16.80;99.90
52481;DHT22;38393;52.404;13.532;2023-07-31T08:36:42;17.00;99.90
52481;DHT22;38393;52.404;13.532;2023-07-31T08:39:07;17.10;99.90
52481;DHT22;38393;52.404;13.532;2023-07-31T08:41:37;17.20;99.90
52481;DHT22;38393;52.404;13.532;2023-07-31T08:44:04;17.40;99.90
52481;DHT22;38393;52.404;13.532;2023-07-31T08:46:30;17.60;99.90
52481;DHT22;38393;52.404;13.532;2023-07-31T08:48:55;17.60;99.90
52481;DHT22;38393;52.404;13.532;2023-07-31T08:51:21;17.30;99.90
52481;DHT22;38393;52.404;13.532;2023-07-31T08:53:47;17.30;99.90
52481;DHT22;38393;52.404;13.532;2023-07-31T08:56:13;17.40;99.90
52481;DHT22;38393;52.404;13.532;2023-07-31T08:58:40;17.50;99.90
52481;DHT22;38393;52.404;13.532;2023-07-31T09:01:07;17.60;99.90
52481;DHT22;38393;52.404;13.532;2023-07-31T09:03:34;17.70;99.90
52481;DHT22;38393;52.404;13.532;2023-07-31T09:06:02;17.40;99.90
52481;DHT22;38393;52.404;13.532;2023-07-31T09:08:30;17.50;99.90
52481;DHT22;38393;52.404;13.532;2023-07-31T09:11:02;17.60;99.90
52481;DHT22;38393;52.404;13.532;2023-07-31T09:13:31;17.80;99.90
52481;DHT22;38393;52.404;13.532;2023-07-31T09:15:57;18.20;99.90
52481;DHT22;38393;52.404;13.532;2023-07-31T09:18:23;18.00;99.90
52481;DHT22;38393;52.404;13.532;2023-07-31T09:21:03;18.00;99.90
52481;DHT22;38393;52.404;13.532;2023-07-31T09:23:40;18.40;99.90
52481;DHT22;38393;52.404;13.532;2023-07-31T09:26:06;18.40;99.90
52481;DHT22;38393;52.404;13.532;2023-07-31T09:28:31;17.80;99.90
52481;DHT22;38393;52.404;13.532;2023-07-31T09:30:57;17.90;99.90
52481;DHT22;38393;52.404;13.532;2023-07-31T09:33:22;17.80;99.90
52481;DHT22;38393;52.404;13.532;2023-07-31T09:35:48;17.60;99.90
52481;DHT22;38393;52.404;13.532;2023-07-31T09:38:15;17.50;99.90
52481;DHT22;38393;52.404;13.532;2023-07-31T09:40:47;17.40;99.90
52481;DHT22;38393;52.404;13.532;2023-07-31T09:43:17;17.20;99.90
52481;DHT22;38393;52.404;13.532;2023-07-31T09:45:44;17.20;99.90
52481;DHT22;38393;52.404;13.532;2023-07-31T09:48:11;17.40;99.90
52481;DHT22;38393;52.404;13.532;2023-07-31T09:50:39;17.40;99.90
52481;DHT22;38393;52.404;13.532;2023-07-31T09:53:05;17.80;99.90
52481;DHT22;38393;52.404;13.532;2023-07-31T09:55:31;17.80;99.90
52481;DHT22;38393;52.404;13.532;2023-07-31T09:58:02;17.80;99.90
52481;DHT22;38393;52.404;13.532;2023-07-31T10:00:30;17.90;99.90
52481;DHT22;38393;52.404;13.532;2023-07-31T10:02:58;18.00;99.90
52481;DHT22;38393;52.404;13.532;2023-07-31T10:05:34;18.40;99.90
52481;DHT22;38393;52.404;13.532;2023-07-31T10:08:00;18.40;99.90
52481;DHT22;38393;52.404;13.532;2023-07-31T10:10:26;18.40;99.90
52481;DHT22;38393;52.404;13.532;2023-07-31T10:12:53;18.10;99.90
52481;DHT22;38393;52.404;13.532;2023-07-31T10:15:19;18.30;99.90
52481;DHT22;38393;52.404;13.532;2023-07-31T10:17:49;18.30;99.90
52481;DHT22;38393;52.404;13.532;2023-07-31T10:20:16;18.40;99.90
52481;DHT22;38393;52.404;13.532;2023-07-31T10:22:42;18.40;99.90
52481;DHT22;38393;52.404;13.532;2023-07-31T10:25:09;18.30;99.90
52481;DHT22;38393;52.404;13.532;2023-07-31T10:27:36;18.10;99.90
52481;DHT22;38393;52.404;13.532;2023-07-31T10:30:04;18.20;99.90
52481;DHT22;38393;52.404;13.532;2023-07-31T10:32:31;18.20;99.90
52481;DHT22;38393;52.404;13.532;2023-07-31T10:34:57;18.20;99.90
52481;DHT22;38393;52.404;13.532;2023-07-31T10:37:28;18.10;99.90
52481;DHT22;38393;52.404;13.532;2023-07-31T10:40:09;18.30;99.90
52481;DHT22;38393;52.404;13.532;2023-07-31T10:42:37;18.40;99.90
52481;DHT22;38393;52.404;13.532;2023-07-31T10:45:06;18.50;99.90
52481;DHT22;38393;52.404;13.532;2023-07-31T10:47:46;18.80;99.90
52481;DHT22;38393;52.404;13.532;2023-07-31T10:50:13;18.80;99.90
52481;DHT22;38393;52.404;13.532;2023-07-31T10:52:38;19.20;99.90
52481;DHT22;38393;52.404;13.532;2023-07-31T10:55:26;19.70;99.90
52481;DHT22;38393;52.404;13.532;2023-07-31T10:57:53;20.00;99.90
52481;DHT22;38393;52.404;13.532;2023-07-31T11:00:29;20.30;99.90
52481;DHT22;38393;52.404;13.532;2023-07-31T11:02:58;20.20;99.90
52481;DHT22;38393;52.404;13.532;2023-07-31T11:05:41;20.80;99.90
52481;DHT22;38393;52.404;13.532;2023-07-31T11:10:37;21.20;99.90
52481;DHT22;38393;52.404;13.532;2023-07-31T11:13:04;21.30;99.90
52481;DHT22;38393;52.404;13.532;2023-07-31T11:15:30;21.40;99.90
52481;DHT22;38393;52.404;13.532;2023-07-31T11:17:56;21.20;99.90
52481;DHT22;38393;52.404;13.532;2023-07-31T11:20:24;20.80;99.90
52481;DHT22;38393;52.404;13.532;2023-07-31T11:25:16;20.70;97.70
52481;DHT22;38393;52.404;13.532;2023-07-31T11:27:41;20.80;98.40
52481;DHT22;38393;52.404;13.532;2023-07-31T11:30:09;20.90;97.30
52481;DHT22;38393;52.404;13.532;2023-07-31T11:32:37;20.80;93.50
52481;DHT22;38393;52.404;13.532;2023-07-31T11:35:02;20.80;95.00
52481;DHT22;38393;52.404;13.532;2023-07-31T11:37:42;21.10;95.50
52481;DHT22;38393;52.404;13.532;2023-07-31T11:40:09;21.10;91.90
52481;DHT22;38393;52.404;13.532;2023-07-31T11:42:35;20.90;91.90
52481;DHT22;38393;52.404;13.532;2023-07-31T11:45:04;21.00;92.20
52481;DHT22;38393;52.404;13.532;2023-07-31T11:47:32;21.40;93.00
52481;DHT22;38393;52.404;13.532;2023-07-31T11:50:00;21.20;90.90
52481;DHT22;38393;52.404;13.532;2023-07-31T11:52:28;21.10;92.30
52481;DHT22;38393;52.404;13.532;2023-07-31T11:54:55;21.20;91.60
52481;DHT22;38393;52.404;13.532;2023-07-31T11:57:21;21.00;92.90
52481;DHT22;38393;52.404;13.532;2023-07-31T11:59:48;21.00;92.70
52481;DHT22;38393;52.404;13.532;2023-07-31T12:02:14;21.10;92.20
52481;DHT22;38393;52.404;13.532;2023-07-31T12:04:40;21.00;91.90
52481;DHT22;38393;52.404;13.532;2023-07-31T12:07:05;20.90;91.40
52481;DHT22;38393;52.404;13.532;2023-07-31T12:09:31;21.00;92.60
52481;DHT22;38393;52.404;13.532;2023-07-31T12:11:56;21.20;91.20
52481;DHT22;38393;52.404;13.532;2023-07-31T12:14:24;21.00;92.10
52481;DHT22;38393;52.404;13.532;2023-07-31T12:16:58;21.10;93.20
52481;DHT22;38393;52.404;13.532;2023-07-31T12:19:25;21.10;92.70
52481;DHT22;38393;52.404;13.532;2023-07-31T12:21:53;21.00;93.30
52481;DHT22;38393;52.404;13.532;2023-07-31T12:24:19;21.10;92.90
52481;DHT22;38393;52.404;13.532;2023-07-31T12:26:46;21.30;92.70
52481;DHT22;38393;52.404;13.532;2023-07-31T12:29:12;21.20;91.80
52481;DHT22;38393;52.404;13.532;2023-07-31T12:31:41;21.10;93.00
52481;DHT22;38393;52.404;13.532;2023-07-31T12:34:17;20.90;93.80
52481;DHT22;38393;52.404;13.532;2023-07-31T12:36:43;20.70;93.60
52481;DHT22;38393;52.404;13.532;2023-07-31T12:39:09;20.50;92.80
52481;DHT22;38393;52.404;13.532;2023-07-31T12:41:35;20.50;94.10
52481;DHT22;38393;52.404;13.532;2023-07-31T12:44:00;20.50;93.90
52481;DHT22;38393;52.404;13.532;2023-07-31T12:46:26;20.60;94.50
52481;DHT22;38393;52.404;13.532;2023-07-31T12:48:51;20.80;94.80
52481;DHT22;38393;52.404;13.532;2023-07-31T12:51:17;20.90;92.80
52481;DHT22;38393;52.404;13.532;2023-07-31T12:53:42;21.20;93.00
52481;DHT22;38393;52.404;13.532;2023-07-31T12:56:08;21.30;91.30
52481;DHT22;38393;52.404;13.532;2023-07-31T12:58:33;21.20;91.20
52481;DHT22;38393;52.404;13.532;2023-07-31T13:00:59;21.30;91.00
52481;DHT22;38393;52.404;13.532;2023-07-31T13:03:25;21.30;90.80
52481;DHT22;38393;52.404;13.532;2023-07-31T13:05:50;21.50;89.90
52481;DHT22;38393;52.404;13.532;2023-07-31T13:08:17;21.10;89.80
52481;DHT22;38393;52.404;13.532;2023-07-31T13:10:43;21.40;90.70
52481;DHT22;38393;52.404;13.532;2023-07-31T13:13:09;21.20;90.80
52481;DHT22;38393;52.404;13.532;2023-07-31T13:15:35;21.00;91.30
52481;DHT22;38393;52.404;13.532;2023-07-31T13:18:00;21.00;91.50
52481;DHT22;38393;52.404;13.532;2023-07-31T13:20:26;21.00;91.50
52481;DHT22;38393;52.404;13.532;2023-07-31T13:22:51;21.00;90.30
52481;DHT22;38393;52.404;13.532;2023-07-31T13:27:43;21.10;91.90
52481;DHT22;38393;52.404;13.532;2023-07-31T13:30:08;21.20;90.80
52481;DHT22;38393;52.404;13.532;2023-07-31T13:32:34;21.40;90.70
52481;DHT22;38393;52.404;13.532;2023-07-31T13:35:05;21.20;91.00
52481;DHT22;38393;52.404;13.532;2023-07-31T13:37:30;21.30;91.50
52481;DHT22;38393;52.404;13.532;2023-07-31T13:39:56;21.30;90.90
52481;DHT22;38393;52.404;13.532;2023-07-31T13:42:21;21.10;91.70
52481;DHT22;38393;52.404;13.532;2023-07-31T13:44:47;21.30;92.00
52481;DHT22;38393;52.404;13.532;2023-07-31T13:47:13;21.90;90.70
52481;DHT22;38393;52.404;13.532;2023-07-31T13:49:38;22.00;89.20
52481;DHT22;38393;52.404;13.532;2023-07-31T13:52:04;22.10;88.40
52481;DHT22;38393;52.404;13.532;2023-07-31T13:54:30;22.10;87.10
52481;DHT22;38393;52.404;13.532;2023-07-31T13:56:55;22.10;89.30
52481;DHT22;38393;52.404;13.532;2023-07-31T13:59:21;22.20;86.10
52481;DHT22;38393;52.404;13.532;2023-07-31T14:01:47;22.20;87.80
52481;DHT22;38393;52.404;13.532;2023-07-31T14:04:13;22.40;86.50
52481;DHT22;38393;52.404;13.532;2023-07-31T14:06:38;22.20;86.30
52481;DHT22;38393;52.404;13.532;2023-07-31T14:09:04;22.40;86.20
52481;DHT22;38393;52.404;13.532;2023-07-31T14:11:33;22.80;88.60
52481;DHT22;38393;52.404;13.532;2023-07-31T14:13:59;22.60;85.80
52481;DHT22;38393;52.404;13.532;2023-07-31T14:16:24;22.50;87.20
52481;DHT22;38393;52.404;13.532;2023-07-31T14:18:50;22.30;86.60
52481;DHT22;38393;52.404;13.532;2023-07-31T14:21:16;22.10;85.10
52481;DHT22;38393;52.404;13.532;2023-07-31T14:23:41;22.30;85.80
52481;DHT22;38393;52.404;13.532;2023-07-31T14:26:07;22.30;86.20
52481;DHT22;38393;52.404;13.532;2023-07-31T14:28:33;22.20;85.90
52481;DHT22;38393;52.404;13.532;2023-07-31T14:30:58;22.10;88.00
52481;DHT22;38393;52.404;13.532;2023-07-31T14:33:24;22.00;86.80
52481;DHT22;38393;52.404;13.532;2023-07-31T14:35:50;22.00;87.10
52481;DHT22;38393;52.404;13.532;2023-07-31T14:38:15;21.90;86.80
52481;DHT22;38393;52.404;13.532;2023-07-31T14:40:41;21.80;87.40
52481;DHT22;38393;52.404;13.532;2023-07-31T14:43:07;21.90;90.20
52481;DHT22;38393;52.404;13.532;2023-07-31T14:45:32;22.20;90.00
52481;DHT22;38393;52.404;13.532;2023-07-31T14:47:58;22.40;87.30
52481;DHT22;38393;52.404;13.532;2023-07-31T14:50:25;22.40;86.10
52481;DHT22;38393;52.404;13.532;2023-07-31T14:52:50;22.30;87.00
52481;DHT22;38393;52.404;13.532;2023-07-31T14:55:16;22.10;86.00
52481;DHT22;38393;52.404;13.532;2023-07-31T14:57:41;22.00;88.20
52481;DHT22;38393;52.404;13.532;2023-07-31T15:00:07;22.10;86.30
52481;DHT22;38393;52.404;13.532;2023-07-31T15:02:34;22.10;87.40
52481;DHT22;38393;52.404;13.532;2023-07-31T15:05:00;22.00;86.70
52481;DHT22;38393;52.404;13.532;2023-07-31T15:07:25;22.10;88.00
52481;DHT22;38393;52.404;13.532;2023-07-31T15:09:51;22.10;86.10
52481;DHT22;38393;52.404;13.532;2023-07-31T15:14:43;21.70;84.20
52481;DHT22;38393;52.404;13.532;2023-07-31T15:17:08;21.50;83.90
52481;DHT22;38393;52.404;13.532;2023-07-31T15:19:34;21.40;86.70
52481;DHT22;38393;52.404;13.532;2023-07-31T15:22:02;21.30;87.50
52481;DHT22;38393;52.404;13.532;2023-07-31T15:24:28;21.20;86.40